createdAt,value
2022-12-08T00:00:31.927Z,2.60
2022-12-08T00:05:52.257Z,2.60
2022-12-08T00:10:53.919Z,2.45
2022-12-08T00:16:00.699Z,2.33
2022-12-08T00:21:02.855Z,3.25
2022-12-08T00:26:05.471Z,2.50
2022-12-08T00:31:08.744Z,2.30
2022-12-08T00:36:13.062Z,2.35
2022-12-08T00:41:17.515Z,2.33
2022-12-08T00:46:19.177Z,2.10
2022-12-08T00:51:20.881Z,2.25
2022-12-08T00:56:22.651Z,2.03
2022-12-08T01:01:24.438Z,2.05
2022-12-08T01:06:26.144Z,2.10
2022-12-08T01:11:28.766Z,1.92
2022-12-08T01:16:33.253Z,2.60
2022-12-08T01:21:34.932Z,2.72
2022-12-08T01:26:43.886Z,2.28
2022-12-08T01:31:45.598Z,2.38
2022-12-08T01:36:50.444Z,3.22
2022-12-08T01:41:52.117Z,2.67
2022-12-08T01:46:54.415Z,2.78
2022-12-08T01:52:09.994Z,3.42
2022-12-08T01:57:12.739Z,2.78
2022-12-08T02:02:15.257Z,3.03
2022-12-08T02:07:18.000Z,3.10
2022-12-08T02:12:19.676Z,4.05
2022-12-08T02:17:36.575Z,3.70
2022-12-08T02:22:50.835Z,3.85
2022-12-08T02:27:55.531Z,3.97
2022-12-08T02:33:38.853Z,3.80
2022-12-08T02:38:46.159Z,3.55
2022-12-08T02:43:49.409Z,4.30
2022-12-08T02:48:51.759Z,4.78
2022-12-08T02:53:53.462Z,4.05
2022-12-08T02:59:16.661Z,3.92
2022-12-08T03:04:31.276Z,3.38
2022-12-08T03:09:46.827Z,3.83
2022-12-08T03:14:53.026Z,3.47
2022-12-08T03:19:55.746Z,4.70
2022-12-08T03:24:57.862Z,4.00
2022-12-08T03:30:00.696Z,4.05
2022-12-08T03:35:05.795Z,4.32
2022-12-08T03:40:10.120Z,3.63
2022-12-08T03:45:12.173Z,4.05
2022-12-08T03:50:15.107Z,3.65
2022-12-08T03:55:17.337Z,4.13
2022-12-08T04:00:19.167Z,4.30
2022-12-08T04:05:20.811Z,3.42
2022-12-08T04:10:22.425Z,3.42
2022-12-08T04:15:24.140Z,4.00
2022-12-08T04:20:25.832Z,3.47
2022-12-08T04:25:27.856Z,3.67
2022-12-08T04:30:29.532Z,3.55
2022-12-08T04:35:31.645Z,3.78
2022-12-08T04:40:33.612Z,3.25
2022-12-08T04:45:35.436Z,3.50
2022-12-08T04:50:40.608Z,4.35
2022-12-08T04:55:44.234Z,3.58
2022-12-08T05:00:46.611Z,3.90
2022-12-08T05:05:48.272Z,4.18
2022-12-08T05:10:50.038Z,3.70
2022-12-08T05:15:51.808Z,4.43
2022-12-08T05:20:53.513Z,3.78
2022-12-08T05:25:55.366Z,3.95
2022-12-08T05:30:57.017Z,4.05
2022-12-08T05:35:58.653Z,3.88
2022-12-08T05:41:00.386Z,4.93
2022-12-08T05:46:02.532Z,4.90
2022-12-08T05:51:05.010Z,4.55
2022-12-08T05:56:06.981Z,3.92
2022-12-08T06:01:21.416Z,4.43
2022-12-08T06:06:23.073Z,4.20
2022-12-08T06:11:29.772Z,3.20
2022-12-08T06:16:31.535Z,2.53
2022-12-08T06:21:33.275Z,4.20
2022-12-08T06:26:36.129Z,3.65
2022-12-08T06:31:37.879Z,4.10
2022-12-08T06:36:39.553Z,3.72
2022-12-08T06:41:59.730Z,4.25
2022-12-08T06:47:01.368Z,4.35
2022-12-08T06:52:03.090Z,4.18
2022-12-08T06:57:04.719Z,3.05
2022-12-08T07:02:06.716Z,4.07
2022-12-08T07:07:08.441Z,4.53
2022-12-08T07:12:10.109Z,3.97
2022-12-08T07:17:12.358Z,3.75
2022-12-08T07:22:14.362Z,3.72
2022-12-08T07:27:16.004Z,4.38
2022-12-08T07:32:17.758Z,4.15
2022-12-08T07:37:19.480Z,4.32
2022-12-08T07:42:21.177Z,3.88
2022-12-08T07:47:22.861Z,4.00
2022-12-08T07:52:24.816Z,4.38
2022-12-08T07:57:26.530Z,4.60
2022-12-08T08:02:28.413Z,4.47
2022-12-08T08:07:31.306Z,4.80
2022-12-08T08:12:33.301Z,4.82
2022-12-08T08:17:36.912Z,4.90
2022-12-08T08:22:39.073Z,4.78
2022-12-08T08:27:42.408Z,5.57
2022-12-08T08:32:45.339Z,5.88
2022-12-08T08:37:49.446Z,4.43
2022-12-08T08:42:52.627Z,3.92
2022-12-08T08:47:54.265Z,5.15
2022-12-08T08:52:57.709Z,4.70
2022-12-08T08:57:59.349Z,4.68
2022-12-08T09:03:01.074Z,4.53
2022-12-08T09:08:02.872Z,5.53
2022-12-08T09:13:04.574Z,3.85
2022-12-08T09:18:12.441Z,4.05
2022-12-08T09:23:16.068Z,4.53
2022-12-08T09:28:17.696Z,3.80
2022-12-08T09:33:19.393Z,5.47
2022-12-08T09:38:21.126Z,4.30
2022-12-08T09:43:28.745Z,4.90
2022-12-08T09:48:34.581Z,4.32
2022-12-08T09:53:39.851Z,4.53
2022-12-08T09:58:58.037Z,4.97
2022-12-08T10:04:00.983Z,5.13
2022-12-08T10:09:02.625Z,4.22
2022-12-08T10:14:26.085Z,4.20
2022-12-08T10:24:37.378Z,4.63
2022-12-08T10:29:40.536Z,4.35
2022-12-08T10:35:01.797Z,3.63
2022-12-08T10:40:11.276Z,3.17
2022-12-08T10:45:24.196Z,3.65
2022-12-08T10:50:35.405Z,3.20
2022-12-08T10:55:46.429Z,4.00
2022-12-08T11:00:48.226Z,4.18
2022-12-08T11:05:50.053Z,3.95
2022-12-08T11:10:51.670Z,4.22
2022-12-08T11:15:57.186Z,4.28
2022-12-08T11:21:02.331Z,4.47
2022-12-08T11:26:18.378Z,3.65
2022-12-08T11:31:32.424Z,2.90
2022-12-08T11:36:37.656Z,2.83
2022-12-08T11:41:42.444Z,2.80
2022-12-08T11:46:50.867Z,2.90
2022-12-08T11:52:17.590Z,2.47
2022-12-08T11:57:21.168Z,2.38
2022-12-08T12:02:29.778Z,2.55
2022-12-08T12:07:57.595Z,2.72
2022-12-08T12:13:26.703Z,2.00
2022-12-08T12:18:35.893Z,2.47
2022-12-08T12:23:53.773Z,2.22
2022-12-08T12:28:59.013Z,2.70
2022-12-08T12:34:11.008Z,2.08
2022-12-08T12:39:13.669Z,3.00
2022-12-08T12:44:15.281Z,2.55
2022-12-08T12:49:43.904Z,2.20
2022-12-08T12:55:05.558Z,2.28
2022-12-08T13:00:10.096Z,2.28
2022-12-08T13:05:26.182Z,2.53
2022-12-08T13:10:30.751Z,2.92
2022-12-08T13:15:38.357Z,2.78
2022-12-08T13:20:42.789Z,2.70
2022-12-08T13:25:44.389Z,2.78
2022-12-08T13:31:26.447Z,2.80
2022-12-08T13:36:33.845Z,2.75
2022-12-08T13:41:41.865Z,2.70
2022-12-08T13:47:16.855Z,2.70
2022-12-08T13:53:49.043Z,2.55
2022-12-08T13:57:39.658Z,2.55
2022-12-08T14:02:49.434Z,2.17
2022-12-08T14:07:55.013Z,3.28
2022-12-08T14:13:03.100Z,2.35
2022-12-08T14:18:04.865Z,2.03
2022-12-08T14:23:08.235Z,3.10
2022-12-08T14:28:10.587Z,2.35
2022-12-08T14:33:15.122Z,2.15
2022-12-08T14:38:18.828Z,2.97
2022-12-08T14:43:21.165Z,2.53
2022-12-08T14:48:25.963Z,2.60
2022-12-08T14:53:31.963Z,2.35
2022-12-08T14:58:33.637Z,2.95
2022-12-08T15:03:36.566Z,3.35
2022-12-08T15:08:58.764Z,2.80
2022-12-08T15:14:01.352Z,3.92
2022-12-08T15:19:30.466Z,3.40
2022-12-08T15:24:32.419Z,3.08
2022-12-08T15:29:34.083Z,3.20
2022-12-08T15:34:37.188Z,3.83
2022-12-08T15:39:39.434Z,4.10
2022-12-08T15:44:41.738Z,3.15
2022-12-08T15:49:44.046Z,3.80
2022-12-08T15:54:45.783Z,3.22
2022-12-08T15:59:47.601Z,3.75
2022-12-08T16:10:20.702Z,2.70
2022-12-08T16:15:50.062Z,4.18
2022-12-08T16:21:08.092Z,4.15
2022-12-08T16:26:21.910Z,3.75
2022-12-08T16:31:28.613Z,3.53
2022-12-08T16:36:30.332Z,3.75
2022-12-08T16:41:50.524Z,3.53
2022-12-08T16:46:52.278Z,3.45
2022-12-08T16:51:54.123Z,3.13
2022-12-08T16:56:55.796Z,3.60
2022-12-08T17:01:57.532Z,3.33
2022-12-08T17:06:59.552Z,3.30
2022-12-08T17:12:04.058Z,3.22
2022-12-08T17:17:06.544Z,3.90
2022-12-08T17:22:08.291Z,4.30
2022-12-08T17:27:09.944Z,4.45
2022-12-08T17:32:11.846Z,3.63
2022-12-08T17:37:13.823Z,3.50
2022-12-08T17:42:15.715Z,3.38
2022-12-08T17:47:17.366Z,3.67
2022-12-08T17:52:19.064Z,4.10
2022-12-08T17:57:20.770Z,3.17
2022-12-08T18:02:22.658Z,3.10
2022-12-08T18:07:24.438Z,3.30
2022-12-08T18:12:26.076Z,3.83
2022-12-08T18:17:27.745Z,3.20
2022-12-08T18:22:29.449Z,3.42
2022-12-08T18:27:31.100Z,3.83
2022-12-08T18:32:33.182Z,3.42
2022-12-08T18:37:34.929Z,3.67
2022-12-08T18:42:36.761Z,3.03
2022-12-08T18:47:40.241Z,3.10
2022-12-08T18:52:42.353Z,3.40
2022-12-08T18:57:44.117Z,3.10
2022-12-08T19:02:46.036Z,2.92
2022-12-08T19:07:47.982Z,3.35
2022-12-08T19:12:51.267Z,2.75
2022-12-08T19:17:53.074Z,2.97
2022-12-08T19:22:55.286Z,3.10
2022-12-08T19:27:56.986Z,2.72
2022-12-08T19:32:58.778Z,3.30
2022-12-08T19:38:00.480Z,3.13
2022-12-08T19:43:20.822Z,3.35
2022-12-08T19:48:22.594Z,3.05
2022-12-08T19:53:24.634Z,2.88
2022-12-08T19:58:26.345Z,3.13
2022-12-08T20:03:28.120Z,3.40
2022-12-08T20:08:29.925Z,3.08
2022-12-08T20:13:47.806Z,3.30
2022-12-08T20:18:49.993Z,4.03
2022-12-08T20:23:51.752Z,3.53
2022-12-08T20:28:53.450Z,3.60
2022-12-08T20:33:55.595Z,3.28
2022-12-08T20:38:57.426Z,3.38
2022-12-08T20:43:59.084Z,3.28
2022-12-08T20:49:03.256Z,3.40
2022-12-08T20:54:05.002Z,3.58
2022-12-08T20:59:06.827Z,3.70
2022-12-08T21:04:12.348Z,3.60
2022-12-08T21:09:14.476Z,3.70
2022-12-08T21:14:16.220Z,3.78
2022-12-08T21:19:19.829Z,3.67
2022-12-08T21:24:21.662Z,4.18
2022-12-08T21:29:23.431Z,4.07
2022-12-08T21:34:26.327Z,9.32
2022-12-08T21:39:28.185Z,4.63
2022-12-08T21:44:30.073Z,4.32
2022-12-08T21:49:32.045Z,5.32
2022-12-08T21:54:33.817Z,4.65
2022-12-08T21:59:35.718Z,4.72
2022-12-08T22:04:37.673Z,4.85
2022-12-08T22:09:39.695Z,5.63
2022-12-08T22:14:41.570Z,4.80
2022-12-08T22:19:43.661Z,5.30
2022-12-08T22:24:45.542Z,5.65
2022-12-08T22:29:47.209Z,4.03
2022-12-08T22:34:49.942Z,5.13
2022-12-08T22:39:51.831Z,5.32
2022-12-08T22:44:53.443Z,6.22
2022-12-08T22:49:55.197Z,4.57
2022-12-08T22:54:56.839Z,5.95
2022-12-08T22:59:58.658Z,5.97
2022-12-08T23:05:00.550Z,6.32
2022-12-08T23:10:02.906Z,6.40
2022-12-08T23:15:05.730Z,6.10
2022-12-08T23:20:08.179Z,4.70
2022-12-08T23:25:10.322Z,5.90
2022-12-08T23:30:12.650Z,6.72
2022-12-08T23:35:14.756Z,6.03
2022-12-08T23:40:16.627Z,5.75
2022-12-08T23:45:18.395Z,6.65
2022-12-08T23:50:20.187Z,7.18
2022-12-08T23:55:21.884Z,7.07
